Time;durP1;ratioP1;P1;durP2;ratioP2;P2;SDS_P1;SDS_P2;PMS_P1;PMS_P2;Temp;Humidity;BMP_temperature;BMP_pressure;BME280_temperature;BME280_humidity;BME280_pressure;Samples;Min_cycle;Max_cycle;Signal;HPM_P1;HPM_P2
2023/03/15 00:01:27;;;;;;;;;;;;;;;7.98;nan;97659.44;5032248;28;20028;-61
2023/03/15 00:03:54;;;;;;;;;;;;;;;7.98;nan;97669.63;5032042;28;19968;-58
2023/03/15 00:06:20;;;;;;;;;;;;;;;8.01;nan;97658.53;5033525;28;19963;-59
2023/03/15 00:08:46;;;;;;;;;;;;;;;7.94;nan;97668.03;5033451;28;20643;-58
2023/03/15 00:11:13;;;;;;;;;;;;;;;7.93;nan;97671.47;5031924;28;20035;-58
2023/03/15 00:13:38;;;;;;;;;;;;;;;7.93;nan;97656.19;5035612;28;19925;-58
2023/03/15 00:16:04;;;;;;;;;;;;;;;7.88;nan;97663.09;5032134;28;20058;-57
2023/03/15 00:18:29;;;;;;;;;;;;;;;7.90;nan;97660.47;5031232;28;20003;-56
2023/03/15 00:20:55;;;;;;;;;;;;;;;7.90;nan;97670.69;5033800;28;20381;-58
2023/03/15 00:23:20;;;;;;;;;;;;;;;7.86;nan;97662.28;5032840;28;19936;-59
2023/03/15 00:25:47;;;;;;;;;;;;;;;7.86;nan;97653.78;5041603;28;19936;-58
2023/03/15 00:28:13;;;;;;;;;;;;;;;7.85;nan;97659.78;5033848;28;20724;-60
2023/03/15 00:30:38;;;;;;;;;;;;;;;7.81;nan;97652.19;5034391;28;19927;-58
2023/03/15 00:33:04;;;;;;;;;;;;;;;7.80;nan;97670.94;5034200;28;19924;-59
2023/03/15 00:35:32;;;;;;;;;;;;;;;7.78;nan;97682.03;5033892;28;19929;-59
2023/03/15 00:37:58;;;;;;;;;;;;;;;7.72;nan;97685.56;5032291;28;19921;-57
2023/03/15 00:40:24;;;;;;;;;;;;;;;7.75;nan;97677.84;5032201;28;20411;-57
2023/03/15 00:42:50;;;;;;;;;;;;;;;7.73;nan;97686.41;5040051;28;19921;-58
2023/03/15 00:45:17;;;;;;;;;;;;;;;7.63;nan;97696.00;5033757;28;19925;-60
2023/03/15 00:47:42;;;;;;;;;;;;;;;7.67;nan;97694.22;5037940;28;20364;-58
2023/03/15 00:50:08;;;;;;;;;;;;;;;7.66;nan;97697.63;5031028;28;20002;-61
2023/03/15 00:52:35;;;;;;;;;;;;;;;7.62;nan;97698.56;5030650;28;19925;-57
2023/03/15 00:55:00;;;;;;;;;;;;;;;7.61;nan;97696.88;5028007;28;19924;-58
2023/03/15 00:57:26;;;;;;;;;;;;;;;7.58;nan;97679.94;5028402;28;20441;-56
2023/03/15 00:59:52;;;;;;;;;;;;;;;7.60;nan;97693.50;5029481;28;20191;-56
2023/03/15 01:02:20;;;;;;;;;;;;;;;7.55;nan;97690.22;5031190;28;20063;-58
2023/03/15 01:04:46;;;;;;;;;;;;;;;7.52;nan;97695.38;5031712;28;19932;-60
2023/03/15 01:07:12;;;;;;;;;;;;;;;7.49;nan;97692.06;5032198;28;19993;-60
2023/03/15 01:09:38;;;;;;;;;;;;;;;7.49;nan;97703.09;5029913;28;20341;-61
2023/03/15 01:12:03;;;;;;;;;;;;;;;7.47;nan;97693.81;5034994;28;20008;-60
2023/03/15 01:14:30;;;;;;;;;;;;;;;7.48;nan;97691.22;5033003;28;20009;-60
2023/03/15 01:16:57;;;;;;;;;;;;;;;7.46;nan;97694.69;5033942;28;20003;-57
2023/03/15 01:19:22;;;;;;;;;;;;;;;7.46;nan;97735.47;5033198;28;19925;-56
2023/03/15 01:21:48;;;;;;;;;;;;;;;7.46;nan;97709.97;5033084;28;19924;-59
2023/03/15 01:24:16;;;;;;;;;;;;;;;7.43;nan;97707.47;5030802;28;19928;-57
2023/03/15 01:26:41;;;;;;;;;;;;;;;7.41;nan;97722.81;5036808;28;19928;-57
2023/03/15 01:29:08;;;;;;;;;;;;;;;7.38;nan;97728.00;5031393;28;19963;-57
2023/03/15 01:31:34;;;;;;;;;;;;;;;7.33;nan;97722.16;5029305;28;20488;-57
2023/03/15 01:33:59;;;;;;;;;;;;;;;7.27;nan;97728.19;5039903;28;20539;-57
2023/03/15 01:36:28;;;;;;;;;;;;;;;7.27;nan;97722.25;5028483;28;19948;-59
2023/03/15 01:38:54;;;;;;;;;;;;;;;7.28;nan;97734.16;5030691;28;19925;-64
2023/03/15 01:41:26;;;;;;;;;;;;;;;7.25;nan;97742.69;5038282;28;20088;-57
2023/03/15 01:43:52;;;;;;;;;;;;;;;7.25;nan;97740.16;5034762;28;19924;-59
2023/03/15 01:46:25;;;;;;;;;;;;;;;7.27;nan;97756.25;5027835;28;20285;-59
2023/03/15 01:49:01;;;;;;;;;;;;;;;7.20;nan;97752.16;5030494;28;19920;-60
2023/03/15 01:51:31;;;;;;;;;;;;;;;7.18;nan;97753.88;5027528;28;19924;-57
2023/03/15 01:54:00;;;;;;;;;;;;;;;7.15;nan;97756.50;5026660;28;20310;-59
2023/03/15 01:56:27;;;;;;;;;;;;;;;7.10;nan;97763.38;5026570;28;19924;-58
2023/03/15 01:58:54;;;;;;;;;;;;;;;7.11;nan;97766.78;5029729;28;19925;-58
2023/03/15 02:01:21;;;;;;;;;;;;;;;7.07;nan;97763.44;5035596;28;19921;-57
2023/03/15 02:03:50;;;;;;;;;;;;;;;7.06;nan;97771.94;5026530;28;19921;-59
2023/03/15 02:06:17;;;;;;;;;;;;;;;7.02;nan;97770.34;5024532;28;19925;-59
2023/03/15 02:08:58;;;;;;;;;;;;;;;6.98;nan;97776.34;5021997;28;19956;-58
2023/03/15 02:11:28;;;;;;;;;;;;;;;7.00;nan;97777.16;5045593;28;19967;-59
2023/03/15 02:13:55;;;;;;;;;;;;;;;7.00;nan;97773.78;5028403;28;19921;-59
2023/03/15 02:16:22;;;;;;;;;;;;;;;6.93;nan;97765.41;5042128;28;19964;-58
2023/03/15 02:18:54;;;;;;;;;;;;;;;6.91;nan;97779.91;5032555;28;19932;-60
2023/03/15 02:21:31;;;;;;;;;;;;;;;6.91;nan;97776.50;5039002;28;19925;-59
2023/03/15 02:24:17;;;;;;;;;;;;;;;6.86;nan;97779.97;5028013;28;20121;-59
2023/03/15 02:26:47;;;;;;;;;;;;;;;6.85;nan;97772.34;5045195;28;19920;-59
2023/03/15 02:29:12;;;;;;;;;;;;;;;6.80;nan;97769.88;5029267;28;19924;-59
2023/03/15 02:31:39;;;;;;;;;;;;;;;6.78;nan;97770.78;5029233;28;19925;-58
2023/03/15 02:34:06;;;;;;;;;;;;;;;6.82;nan;97775.81;5029706;28;20347;-59
2023/03/15 02:36:35;;;;;;;;;;;;;;;6.79;nan;97788.56;5030650;28;19944;-58
2023/03/15 02:39:11;;;;;;;;;;;;;;;6.76;nan;97775.91;5029232;28;20446;-57
2023/03/15 02:41:41;;;;;;;;;;;;;;;6.78;nan;97780.97;5029006;28;20739;-59
2023/03/15 02:44:12;;;;;;;;;;;;;;;6.79;nan;97775.84;5028094;28;19925;-62
2023/03/15 02:46:38;;;;;;;;;;;;;;;6.73;nan;97788.69;5029312;28;19920;-58
2023/03/15 02:49:06;;;;;;;;;;;;;;;6.72;nan;97786.16;5028295;28;20816;-59
2023/03/15 02:51:32;;;;;;;;;;;;;;;6.67;nan;97782.84;5043513;28;19967;-58
2023/03/15 02:53:57;;;;;;;;;;;;;;;6.71;nan;97775.13;5027235;28;20218;-61
2023/03/15 02:56:24;;;;;;;;;;;;;;;6.67;nan;97770.13;5034448;28;19931;-59
2023/03/15 02:58:50;;;;;;;;;;;;;;;6.64;nan;97778.66;5028247;28;20458;-58
2023/03/15 03:01:16;;;;;;;;;;;;;;;6.60;nan;97781.28;5030979;28;20184;-58
2023/03/15 03:03:43;;;;;;;;;;;;;;;6.62;nan;97789.75;5028687;28;20294;-58
2023/03/15 03:06:09;;;;;;;;;;;;;;;6.58;nan;97786.41;5029988;28;19959;-58
2023/03/15 03:08:36;;;;;;;;;;;;;;;6.46;nan;97776.41;5033960;28;19932;-58
2023/03/15 03:11:03;;;;;;;;;;;;;;;6.40;nan;97792.66;5026433;28;19930;-59
2023/03/15 03:13:29;;;;;;;;;;;;;;;6.38;nan;97784.19;5036889;28;19920;-59
2023/03/15 03:15:57;;;;;;;;;;;;;;;6.42;nan;97790.06;5031185;28;20272;-58
2023/03/15 03:18:30;;;;;;;;;;;;;;;6.26;nan;97792.03;5026509;28;20449;-57
2023/03/15 03:20:57;;;;;;;;;;;;;;;6.30;nan;97796.19;5023959;28;19971;-59
2023/03/15 03:23:24;;;;;;;;;;;;;;;6.12;nan;97799.00;5029837;28;19948;-58
2023/03/15 03:25:54;;;;;;;;;;;;;;;6.09;nan;97809.25;5028050;28;20451;-59
2023/03/15 03:28:20;;;;;;;;;;;;;;;6.06;nan;97816.09;5042082;28;20383;-59
2023/03/15 03:30:46;;;;;;;;;;;;;;;5.97;nan;97827.22;5034675;28;19975;-58
2023/03/15 03:33:13;;;;;;;;;;;;;;;5.97;nan;97825.53;5028770;28;20336;-59
2023/03/15 03:35:40;;;;;;;;;;;;;;;5.96;nan;97844.19;5027572;28;19997;-58
2023/03/15 03:38:06;;;;;;;;;;;;;;;5.85;nan;97840.09;5028576;28;19929;-58
2023/03/15 03:40:36;;;;;;;;;;;;;;;5.88;nan;97835.81;5028771;28;20000;-58
2023/03/15 03:43:04;;;;;;;;;;;;;;;5.93;nan;97833.22;5029072;28;20415;-58
2023/03/15 03:45:30;;;;;;;;;;;;;;;5.77;nan;97835.06;5037580;28;20292;-59
2023/03/15 03:47:57;;;;;;;;;;;;;;;5.79;nan;97837.59;5040250;28;20337;-60
2023/03/15 03:50:23;;;;;;;;;;;;;;;5.76;nan;97842.75;5034429;28;20007;-59
2023/03/15 03:52:48;;;;;;;;;;;;;;;5.75;nan;97848.69;5029250;28;19925;-59
2023/03/15 03:55:23;;;;;;;;;;;;;;;5.67;nan;97847.94;5037612;28;19920;-59
2023/03/15 03:57:50;;;;;;;;;;;;;;;5.62;nan;97854.78;5029151;28;20249;-59
2023/03/15 04:00:29;;;;;;;;;;;;;;;5.66;nan;97854.72;5028905;28;19932;-59
2023/03/15 04:02:55;;;;;;;;;;;;;;;6.03;nan;97860.19;5025838;28;19984;-59
2023/03/15 04:05:20;;;;;;;;;;;;;;;6.19;nan;97869.34;5045296;28;19924;-59
2023/03/15 04:07:46;;;;;;;;;;;;;;;6.10;nan;97869.44;5037789;28;19929;-59
2023/03/15 04:10:14;;;;;;;;;;;;;;;6.24;nan;97872.63;5018962;28;20376;-59
2023/03/15 04:12:42;;;;;;;;;;;;;;;5.94;nan;97870.53;5026190;28;20218;-61
2023/03/15 04:15:10;;;;;;;;;;;;;;;6.18;nan;97869.34;5027284;28;19990;-61
2023/03/15 04:17:38;;;;;;;;;;;;;;;6.10;nan;97873.69;5031040;28;20030;-54
2023/03/15 04:20:10;;;;;;;;;;;;;;;6.38;nan;97873.28;5041229;28;19960;-61
2023/03/15 04:22:38;;;;;;;;;;;;;;;6.48;nan;97874.00;5027710;28;19979;-61
2023/03/15 04:25:25;;;;;;;;;;;;;;;6.30;nan;97876.81;5029843;28;19924;-63
2023/03/15 04:28:21;;;;;;;;;;;;;;;6.16;nan;97883.78;5038639;28;19924;-63
2023/03/15 04:30:57;;;;;;;;;;;;;;;6.15;nan;97888.06;5022695;28;19945;-63
2023/03/15 04:33:47;;;;;;;;;;;;;;;6.16;nan;97887.16;5012239;28;19928;-63
2023/03/15 04:36:31;;;;;;;;;;;;;;;6.12;nan;97888.06;5036557;28;19967;-63
2023/03/15 04:39:04;;;;;;;;;;;;;;;5.87;nan;97895.19;5034449;28;20379;-62
2023/03/15 04:41:53;;;;;;;;;;;;;;;6.21;nan;97903.22;5035023;28;19929;-61
2023/03/15 04:44:42;;;;;;;;;;;;;;;6.20;nan;97903.22;4998894;28;19925;-63
2023/03/15 04:47:26;;;;;;;;;;;;;;;6.00;nan;97908.59;4999414;28;19940;-59
2023/03/15 04:50:12;;;;;;;;;;;;;;;6.07;nan;97907.63;4946553;28;20452;-62
2023/03/15 04:52:53;;;;;;;;;;;;;;;5.94;nan;97911.22;4988599;28;20027;-62
2023/03/15 04:55:42;;;;;;;;;;;;;;;5.89;nan;97926.53;4999979;28;20390;-61
2023/03/15 04:58:10;;;;;;;;;;;;;;;6.03;nan;97916.16;5000307;28;20491;-62
2023/03/15 05:00:46;;;;;;;;;;;;;;;6.06;nan;97922.94;4985882;28;19929;-61
2023/03/15 05:03:27;;;;;;;;;;;;;;;5.64;nan;97916.63;4970606;28;20013;-61
2023/03/15 05:06:06;;;;;;;;;;;;;;;5.46;nan;97928.69;4989644;28;20485;-62
2023/03/15 05:08:51;;;;;;;;;;;;;;;5.23;nan;97934.81;4979572;28;20415;-62
2023/03/15 05:11:45;;;;;;;;;;;;;;;5.10;nan;97930.69;4977083;28;19981;-60
2023/03/15 05:14:20;;;;;;;;;;;;;;;5.12;nan;97939.16;4990749;28;20063;-63
2023/03/15 05:17:01;;;;;;;;;;;;;;;5.04;nan;97941.78;4976678;28;19925;-61
2023/03/15 05:20:09;;;;;;;;;;;;;;;4.89;nan;97950.34;4958707;28;19926;-62
2023/03/15 05:22:55;;;;;;;;;;;;;;;4.80;nan;97959.72;5028018;28;19940;-61
2023/03/15 05:25:36;;;;;;;;;;;;;;;4.63;nan;97961.53;5038725;28;20520;-61
2023/03/15 05:28:17;;;;;;;;;;;;;;;4.66;nan;97959.00;5029283;28;19924;-61
2023/03/15 05:30:46;;;;;;;;;;;;;;;4.52;nan;97964.13;5027564;28;20400;-62
2023/03/15 05:33:31;;;;;;;;;;;;;;;4.34;nan;97972.69;5035066;28;19925;-61
2023/03/15 05:36:13;;;;;;;;;;;;;;;4.30;nan;97976.09;5038959;28;19977;-61
2023/03/15 05:38:53;;;;;;;;;;;;;;;4.26;nan;97982.03;5029769;28;19925;-61
2023/03/15 05:41:25;;;;;;;;;;;;;;;4.16;nan;97982.91;5032402;28;20269;-62
2023/03/15 05:44:06;;;;;;;;;;;;;;;4.17;nan;97986.31;5030182;28;20406;-61
2023/03/15 05:46:50;;;;;;;;;;;;;;;4.16;nan;97984.63;5030642;28;20351;-62
2023/03/15 05:49:34;;;;;;;;;;;;;;;4.02;nan;97988.06;5036442;28;20012;-62
2023/03/15 05:52:29;;;;;;;;;;;;;;;3.98;nan;97994.00;5003712;28;19925;-61
2023/03/15 05:55:14;;;;;;;;;;;;;;;4.00;nan;97999.03;4985872;28;20400;-63
2023/03/15 05:58:03;;;;;;;;;;;;;;;3.97;nan;98001.59;4988826;28;20507;-62
2023/03/15 06:00:48;;;;;;;;;;;;;;;3.91;nan;98007.53;4997980;28;20431;-61
2023/03/15 06:03:30;;;;;;;;;;;;;;;3.92;nan;98011.75;4984188;28;19981;-62
2023/03/15 06:06:06;;;;;;;;;;;;;;;3.90;nan;98026.16;4999830;28;20220;-62
2023/03/15 06:08:38;;;;;;;;;;;;;;;3.96;nan;98030.34;5000283;28;19925;-63
2023/03/15 06:11:04;;;;;;;;;;;;;;;3.90;nan;98043.88;4999216;28;19925;-56
2023/03/15 06:13:30;;;;;;;;;;;;;;;4.02;nan;98048.09;4981779;28;19957;-56
2023/03/15 06:15:57;;;;;;;;;;;;;;;3.94;nan;98060.78;4994480;28;20016;-57
2023/03/15 06:18:23;;;;;;;;;;;;;;;3.98;nan;98064.16;4999162;28;20446;-57
2023/03/15 06:20:49;;;;;;;;;;;;;;;3.99;nan;98063.28;4985898;28;19925;-58
2023/03/15 06:23:16;;;;;;;;;;;;;;;4.04;nan;98071.72;4996602;28;19929;-58
2023/03/15 06:25:44;;;;;;;;;;;;;;;4.10;nan;98079.34;4981595;28;19948;-58
2023/03/15 06:28:10;;;;;;;;;;;;;;;4.17;nan;98078.47;5006991;28;19925;-59
2023/03/15 06:30:40;;;;;;;;;;;;;;;4.34;nan;98088.56;5037416;28;19924;-56
2023/03/15 06:33:06;;;;;;;;;;;;;;;4.40;nan;98083.47;5038760;28;20008;-57
2023/03/15 06:35:31;;;;;;;;;;;;;;;4.50;nan;98082.56;5029518;28;19924;-59
2023/03/15 06:37:57;;;;;;;;;;;;;;;4.51;nan;98097.81;5044691;28;20295;-58
2023/03/15 06:40:23;;;;;;;;;;;;;;;4.49;nan;98107.16;5028011;28;19967;-56
2023/03/15 06:42:49;;;;;;;;;;;;;;;4.59;nan;98097.78;5027899;28;19924;-56
2023/03/15 06:45:16;;;;;;;;;;;;;;;4.59;nan;98108.78;5030480;28;19933;-56
2023/03/15 06:47:42;;;;;;;;;;;;;;;4.58;nan;98119.78;5037227;28;19944;-56
2023/03/15 06:50:09;;;;;;;;;;;;;;;4.53;nan;98124.03;5030988;28;20222;-58
2023/03/15 06:52:34;;;;;;;;;;;;;;;4.48;nan;98120.66;5035463;28;19927;-59
2023/03/15 06:55:00;;;;;;;;;;;;;;;4.65;nan;98129.91;5035339;28;20376;-56
2023/03/15 06:57:26;;;;;;;;;;;;;;;4.64;nan;98141.75;5029551;28;19928;-58
2023/03/15 06:59:53;;;;;;;;;;;;;;;4.78;nan;98134.94;5028932;28;19925;-56
2023/03/15 07:02:18;;;;;;;;;;;;;;;4.86;nan;98147.59;5028870;28;20442;-56
2023/03/15 07:04:44;;;;;;;;;;;;;;;4.95;nan;98150.97;5029266;28;19925;-59
2023/03/15 07:07:10;;;;;;;;;;;;;;;4.87;nan;98162.84;5028972;28;19985;-55
2023/03/15 07:09:37;;;;;;;;;;;;;;;4.71;nan;98166.28;5027168;28;20240;-58
2023/03/15 07:12:02;;;;;;;;;;;;;;;4.59;nan;98181.53;5028049;28;20296;-58
2023/03/15 07:14:27;;;;;;;;;;;;;;;4.52;nan;98174.81;5026744;28;19932;-57
2023/03/15 07:16:53;;;;;;;;;;;;;;;4.51;nan;98194.25;5037184;28;20411;-55
2023/03/15 07:19:18;;;;;;;;;;;;;;;4.46;nan;98183.25;5027052;28;20287;-54
2023/03/15 07:21:44;;;;;;;;;;;;;;;4.66;nan;98184.94;5027458;28;20038;-56
2023/03/15 07:24:09;;;;;;;;;;;;;;;4.79;nan;98187.44;5029110;28;19924;-56
2023/03/15 07:26:35;;;;;;;;;;;;;;;4.92;nan;98190.78;5027079;28;20288;-58
2023/03/15 07:29:00;;;;;;;;;;;;;;;4.99;nan;98194.97;5025285;28;19925;-55
2023/03/15 07:31:26;;;;;;;;;;;;;;;4.76;nan;98204.34;5026814;28;19929;-55
2023/03/15 07:33:51;;;;;;;;;;;;;;;4.55;nan;98210.31;5029321;28;19921;-56
2023/03/15 07:36:16;;;;;;;;;;;;;;;4.67;nan;98196.78;5034651;28;20348;-57
2023/03/15 07:38:42;;;;;;;;;;;;;;;4.84;nan;98190.78;5027865;28;20055;-58
2023/03/15 07:41:08;;;;;;;;;;;;;;;4.99;nan;98198.34;5028570;28;20024;-57
2023/03/15 07:43:36;;;;;;;;;;;;;;;5.00;nan;98207.66;5035980;28;19954;-55
2023/03/15 07:46:10;;;;;;;;;;;;;;;5.05;nan;98197.47;5028283;28;19927;-58
2023/03/15 07:48:36;;;;;;;;;;;;;;;5.02;nan;98207.66;5025065;28;19929;-57
2023/03/15 07:51:02;;;;;;;;;;;;;;;4.84;nan;98207.69;5025882;28;20030;-57
2023/03/15 07:53:27;;;;;;;;;;;;;;;4.78;nan;98207.75;5027139;28;19967;-56
2023/03/15 07:55:53;;;;;;;;;;;;;;;4.67;nan;98212.00;5032390;28;20387;-59
2023/03/15 07:58:18;;;;;;;;;;;;;;;4.80;nan;98213.63;5028950;28;19987;-57
2023/03/15 08:00:44;;;;;;;;;;;;;;;4.95;nan;98211.06;5028928;28;19951;-57
2023/03/15 08:03:10;;;;;;;;;;;;;;;4.90;nan;98215.31;5028572;28;19921;-57
2023/03/15 08:05:35;;;;;;;;;;;;;;;5.04;nan;98221.19;5028097;28;19925;-57
2023/03/15 08:08:01;;;;;;;;;;;;;;;5.28;nan;98235.50;5026816;28;19979;-57
2023/03/15 08:10:26;;;;;;;;;;;;;;;5.37;nan;98230.38;5027520;28;20320;-58
2023/03/15 08:12:52;;;;;;;;;;;;;;;5.17;nan;98238.09;5029851;28;20070;-59
2023/03/15 08:15:18;;;;;;;;;;;;;;;5.29;nan;98248.19;5028362;28;19931;-58
2023/03/15 08:17:45;;;;;;;;;;;;;;;5.44;nan;98255.75;5029083;28;19931;-58
2023/03/15 08:20:13;;;;;;;;;;;;;;;5.84;nan;98266.56;5027216;28;20098;-60
2023/03/15 08:22:38;;;;;;;;;;;;;;;5.60;nan;98256.50;5026431;28;20070;-59
2023/03/15 08:25:05;;;;;;;;;;;;;;;5.76;nan;98267.47;5028740;28;20055;-58
2023/03/15 08:27:30;;;;;;;;;;;;;;;5.47;nan;98278.59;5031871;28;19964;-59
2023/03/15 08:29:56;;;;;;;;;;;;;;;5.48;nan;98280.28;5014631;28;20338;-59
2023/03/15 08:32:21;;;;;;;;;;;;;;;5.26;nan;98277.88;5030734;28;19928;-60
2023/03/15 08:34:47;;;;;;;;;;;;;;;5.49;nan;98284.53;5031265;28;20501;-58
2023/03/15 08:37:12;;;;;;;;;;;;;;;5.40;nan;98279.50;5022783;28;20361;-59
2023/03/15 08:39:38;;;;;;;;;;;;;;;5.57;nan;98271.78;5028111;28;19960;-58
2023/03/15 08:42:04;;;;;;;;;;;;;;;5.70;nan;98286.13;5032057;28;19916;-59
2023/03/15 08:44:30;;;;;;;;;;;;;;;5.74;nan;98282.72;5031855;28;19925;-59
2023/03/15 08:46:55;;;;;;;;;;;;;;;5.60;nan;98287.00;5032125;28;19935;-59
2023/03/15 08:49:21;;;;;;;;;;;;;;;5.69;nan;98289.50;5032228;28;19982;-57
2023/03/15 08:51:47;;;;;;;;;;;;;;;5.58;nan;98285.34;5030840;28;19931;-59
2023/03/15 08:54:13;;;;;;;;;;;;;;;5.40;nan;98294.75;5029181;28;20504;-61
2023/03/15 08:56:39;;;;;;;;;;;;;;;5.55;nan;98300.63;5029958;28;20481;-58
2023/03/15 08:59:04;;;;;;;;;;;;;;;5.61;nan;98303.13;5032184;28;20268;-60
2023/03/15 09:01:30;;;;;;;;;;;;;;;5.80;nan;98303.03;5028542;28;20329;-59
2023/03/15 09:03:55;;;;;;;;;;;;;;;6.27;nan;98318.03;5028328;28;20366;-58
2023/03/15 09:06:21;;;;;;;;;;;;;;;6.38;nan;98312.84;5030112;28;19932;-60
2023/03/15 09:08:46;;;;;;;;;;;;;;;6.31;nan;98314.63;5032482;28;20373;-59
2023/03/15 09:11:12;;;;;;;;;;;;;;;6.80;nan;98319.28;5028386;28;19979;-59
2023/03/15 09:13:38;;;;;;;;;;;;;;;6.61;nan;98317.78;5027346;28;19954;-59
2023/03/15 09:16:03;;;;;;;;;;;;;;;6.75;nan;98326.13;5026386;28;19971;-59
2023/03/15 09:18:29;;;;;;;;;;;;;;;6.05;nan;98328.38;5028492;28;19924;-60
2023/03/15 09:20:54;;;;;;;;;;;;;;;6.27;nan;98335.88;5046006;28;20374;-57
2023/03/15 09:23:20;;;;;;;;;;;;;;;6.03;nan;98327.50;5030144;28;19928;-59
2023/03/15 09:25:45;;;;;;;;;;;;;;;6.22;nan;98336.75;5026718;28;20023;-59
2023/03/15 09:28:11;;;;;;;;;;;;;;;5.80;nan;98353.91;5027584;28;19932;-57
2023/03/15 09:30:37;;;;;;;;;;;;;;;6.12;nan;98342.72;5030705;28;19932;-57
2023/03/15 09:33:03;;;;;;;;;;;;;;;6.47;nan;98329.78;5029315;28;20398;-62
2023/03/15 09:35:28;;;;;;;;;;;;;;;6.31;nan;98357.91;5030833;28;19927;-58
2023/03/15 09:37:54;;;;;;;;;;;;;;;6.02;nan;98346.19;5031919;28;20461;-60
2023/03/15 09:40:20;;;;;;;;;;;;;;;6.00;nan;98358.91;5030793;28;19928;-60
2023/03/15 09:42:58;;;;;;;;;;;;;;;6.38;nan;98348.50;5029521;28;19921;-60
2023/03/15 09:45:40;;;;;;;;;;;;;;;6.65;nan;98360.19;5030001;28;19921;-58
2023/03/15 09:48:11;;;;;;;;;;;;;;;5.81;nan;98363.22;5031847;28;20738;-59
2023/03/15 09:50:45;;;;;;;;;;;;;;;5.56;nan;98383.69;5031658;28;19928;-58
2023/03/15 09:53:15;;;;;;;;;;;;;;;5.49;nan;98380.28;5028384;28;19967;-59
2023/03/15 09:55:41;;;;;;;;;;;;;;;5.47;nan;98387.91;5014853;28;19920;-60
2023/03/15 09:58:12;;;;;;;;;;;;;;;5.36;nan;98382.03;5025472;28;20111;-59
2023/03/15 10:00:47;;;;;;;;;;;;;;;5.55;nan;98379.44;5029701;28;19925;-59
2023/03/15 10:03:38;;;;;;;;;;;;;;;5.50;nan;98374.38;5029951;28;19921;-59
2023/03/15 10:06:12;;;;;;;;;;;;;;;5.60;nan;98380.28;5029739;28;19920;-59
2023/03/15 10:08:38;;;;;;;;;;;;;;;5.39;nan;98366.75;5043856;28;20168;-59
2023/03/15 10:11:03;;;;;;;;;;;;;;;5.40;nan;98370.16;5027937;28;20376;-59
2023/03/15 10:13:29;;;;;;;;;;;;;;;5.89;nan;98365.78;5027804;28;19935;-58
2023/03/15 10:16:12;;;;;;;;;;;;;;;6.22;nan;98355.41;5028599;28;19967;-59
2023/03/15 10:18:46;;;;;;;;;;;;;;;6.24;nan;98351.13;5045799;28;20035;-58
2023/03/15 10:21:26;;;;;;;;;;;;;;;6.25;nan;98362.16;5030353;28;19928;-60
2023/03/15 10:23:54;;;;;;;;;;;;;;;6.21;nan;98363.03;5017031;28;19920;-57
2023/03/15 10:26:31;;;;;;;;;;;;;;;6.30;nan;98371.47;5026768;28;20368;-58
2023/03/15 10:28:58;;;;;;;;;;;;;;;6.37;nan;98368.03;5023347;28;19924;-61
2023/03/15 10:31:26;;;;;;;;;;;;;;;5.87;nan;98387.81;5026827;28;20280;-60
2023/03/15 10:33:52;;;;;;;;;;;;;;;5.98;nan;98386.09;5027124;28;20258;-58
2023/03/15 10:36:19;;;;;;;;;;;;;;;6.02;nan;98387.75;5033505;28;20578;-59
2023/03/15 10:38:45;;;;;;;;;;;;;;;5.98;nan;98384.34;5027948;28;19974;-58
2023/03/15 10:41:13;;;;;;;;;;;;;;;6.24;nan;98379.13;5027247;28;19931;-60
2023/03/15 10:43:40;;;;;;;;;;;;;;;5.92;nan;98384.41;5024877;28;19920;-60
2023/03/15 10:46:20;;;;;;;;;;;;;;;5.55;nan;98400.63;5027122;28;19967;-58
2023/03/15 10:48:55;;;;;;;;;;;;;;;5.25;nan;98424.41;5026076;28;20011;-56
2023/03/15 10:51:31;;;;;;;;;;;;;;;5.11;nan;98384.59;5026052;28;20129;-57
2023/03/15 10:54:04;;;;;;;;;;;;;;;5.20;nan;98385.44;5025646;28;19953;-58
2023/03/15 10:56:30;;;;;;;;;;;;;;;5.20;nan;98393.06;5027051;28;20028;-59
2023/03/15 10:58:57;;;;;;;;;;;;;;;5.07;nan;98386.31;5026060;28;20795;-60
2023/03/15 11:01:27;;;;;;;;;;;;;;;5.28;nan;98396.44;5022491;28;19924;-60
2023/03/15 11:04:00;;;;;;;;;;;;;;;5.17;nan;98388.00;5022743;28;19925;-60
2023/03/15 11:06:27;;;;;;;;;;;;;;;5.63;nan;98395.50;5022018;28;19940;-61
2023/03/15 11:09:06;;;;;;;;;;;;;;;5.47;nan;98392.19;5028953;28;19920;-59
2023/03/15 11:11:47;;;;;;;;;;;;;;;5.68;nan;98416.69;5027608;28;19959;-62
2023/03/15 11:14:12;;;;;;;;;;;;;;;5.82;nan;98389.50;5024759;28;19927;-61
2023/03/15 11:16:38;;;;;;;;;;;;;;;5.96;nan;98383.53;5029305;28;19924;-62
2023/03/15 11:19:10;;;;;;;;;;;;;;;5.96;nan;98383.53;5029358;28;20023;-62
2023/03/15 11:21:37;;;;;;;;;;;;;;;6.06;nan;98389.44;5028802;28;19925;-59
2023/03/15 11:24:04;;;;;;;;;;;;;;;6.23;nan;98386.81;5027300;28;20020;-62
2023/03/15 11:26:37;;;;;;;;;;;;;;;6.02;nan;98385.22;5024137;28;20288;-61
2023/03/15 11:29:06;;;;;;;;;;;;;;;6.11;nan;98392.78;5023809;28;19925;-60
2023/03/15 11:31:32;;;;;;;;;;;;;;;5.97;nan;98392.88;5028445;28;20502;-61
2023/03/15 11:34:16;;;;;;;;;;;;;;;6.17;nan;98407.19;5028575;28;19948;-60
2023/03/15 11:36:44;;;;;;;;;;;;;;;6.24;nan;98389.31;5027318;28;19978;-61
2023/03/15 11:39:12;;;;;;;;;;;;;;;6.27;nan;98402.06;5025764;28;20289;-60
2023/03/15 11:41:41;;;;;;;;;;;;;;;6.34;nan;98390.97;5029459;28;19920;-61
2023/03/15 11:44:19;;;;;;;;;;;;;;;6.17;nan;98402.09;5029189;28;20236;-61
2023/03/15 11:46:48;;;;;;;;;;;;;;;6.27;nan;98389.31;5025401;28;19925;-60
2023/03/15 11:49:28;;;;;;;;;;;;;;;6.33;nan;98409.63;5026760;28;19925;-61
2023/03/15 11:51:55;;;;;;;;;;;;;;;6.42;nan;98394.31;5028118;28;20018;-61
2023/03/15 11:54:21;;;;;;;;;;;;;;;6.43;nan;98390.91;5030097;28;20063;-62
2023/03/15 11:56:50;;;;;;;;;;;;;;;6.38;nan;98387.53;5028753;28;19928;-61
2023/03/15 11:59:17;;;;;;;;;;;;;;;6.38;nan;98397.72;5032129;28;19924;-63
2023/03/15 12:01:47;;;;;;;;;;;;;;;6.51;nan;98378.13;5032297;28;19921;-60
2023/03/15 12:04:26;;;;;;;;;;;;;;;6.57;nan;98372.16;5032555;28;20469;-60
2023/03/15 12:06:54;;;;;;;;;;;;;;;6.56;nan;98388.28;5032105;28;20010;-60
2023/03/15 12:09:31;;;;;;;;;;;;;;;6.50;nan;98381.53;5032010;28;19917;-61
2023/03/15 12:12:01;;;;;;;;;;;;;;;6.74;nan;98376.25;5029893;28;19967;-62
2023/03/15 12:14:31;;;;;;;;;;;;;;;6.68;nan;98385.63;5027212;28;19921;-60
2023/03/15 12:17:15;;;;;;;;;;;;;;;6.78;nan;98382.19;5030743;28;19925;-60
2023/03/15 12:19:41;;;;;;;;;;;;;;;6.81;nan;98374.50;5031897;28;20003;-59
2023/03/15 12:22:15;;;;;;;;;;;;;;;6.71;nan;98363.53;5030157;28;19924;-61
2023/03/15 12:24:43;;;;;;;;;;;;;;;6.65;nan;98378.88;5030718;28;20316;-58
2023/03/15 12:27:17;;;;;;;;;;;;;;;6.54;nan;98379.78;5030386;28;20291;-60
2023/03/15 12:29:43;;;;;;;;;;;;;;;6.65;nan;98368.69;5035224;28;19971;-60
2023/03/15 12:32:16;;;;;;;;;;;;;;;6.50;nan;98378.13;5036087;28;20004;-61
2023/03/15 12:34:46;;;;;;;;;;;;;;;6.55;nan;98387.44;5031733;28;19964;-59
2023/03/15 12:37:17;;;;;;;;;;;;;;;6.49;nan;98369.66;5030864;28;19921;-59
2023/03/15 12:39:44;;;;;;;;;;;;;;;6.34;nan;98388.41;5031939;28;19943;-60
2023/03/15 12:42:33;;;;;;;;;;;;;;;6.44;nan;98381.56;5031565;28;19925;-62
2023/03/15 12:45:16;;;;;;;;;;;;;;;6.55;nan;98371.31;4970636;28;19921;-61
2023/03/15 12:48:07;;;;;;;;;;;;;;;6.57;nan;98367.06;4972099;28;19933;-60
2023/03/15 12:50:42;;;;;;;;;;;;;;;6.76;nan;98368.59;4968745;28;20005;-59
2023/03/15 12:53:24;;;;;;;;;;;;;;;6.98;nan;98374.34;4966822;28;19933;-59
2023/03/15 12:55:50;;;;;;;;;;;;;;;7.16;nan;98369.94;4951650;28;19922;-60
2023/03/15 12:58:17;;;;;;;;;;;;;;;7.16;nan;98364.84;4968617;28;19949;-60
2023/03/15 13:00:43;;;;;;;;;;;;;;;7.26;nan;98380.88;4970012;28;20314;-58
2023/03/15 13:03:15;;;;;;;;;;;;;;;7.24;nan;98393.66;4966625;28;19922;-60
2023/03/15 13:05:42;;;;;;;;;;;;;;;7.08;nan;98379.38;4970548;28;19921;-60
2023/03/15 13:08:24;;;;;;;;;;;;;;;7.03;nan;98378.56;4966829;28;20548;-59
2023/03/15 13:10:49;;;;;;;;;;;;;;;7.13;nan;98375.03;4971047;28;20379;-59
2023/03/15 13:13:18;;;;;;;;;;;;;;;7.04;nan;98371.75;4967112;28;19926;-58
2023/03/15 13:15:57;;;;;;;;;;;;;;;6.98;nan;98379.44;4969493;28;20032;-59
2023/03/15 13:18:25;;;;;;;;;;;;;;;7.06;nan;98383.63;4970461;28;20077;-58
2023/03/15 13:21:10;;;;;;;;;;;;;;;6.91;nan;98382.91;4967965;28;20016;-58
2023/03/15 13:23:36;;;;;;;;;;;;;;;6.89;nan;98377.81;5028589;28;20059;-60
2023/03/15 13:26:22;;;;;;;;;;;;;;;6.89;nan;98382.91;5030896;28;20285;-59
2023/03/15 13:28:53;;;;;;;;;;;;;;;6.89;nan;98383.78;5026916;28;19921;-59
2023/03/15 13:31:20;;;;;;;;;;;;;;;6.93;nan;98396.47;5029540;28;19928;-57
2023/03/15 13:33:47;;;;;;;;;;;;;;;6.92;nan;98364.22;5027626;28;19974;-60